sensor_id;sensor_type;location;lat;lon;timestamp;P1;durP1;ratioP1;P2;durP2;ratioP2
45077;SDS011;60508;42.622;25.416;2024-02-15T00:01:47;4.63;;;3.38;;
45077;SDS011;60508;42.622;25.416;2024-02-15T00:04:13;5.13;;;4.32;;
45077;SDS011;60508;42.622;25.416;2024-02-15T00:07:00;7.32;;;3.72;;
45077;SDS011;60508;42.622;25.416;2024-02-15T00:09:28;9.50;;;5.70;;
45077;SDS011;60508;42.622;25.416;2024-02-15T00:11:54;9.13;;;4.82;;
45077;SDS011;60508;42.622;25.416;2024-02-15T00:14:22;11.45;;;4.00;;
45077;SDS011;60508;42.622;25.416;2024-02-15T00:17:08;5.75;;;3.33;;
45077;SDS011;60508;42.622;25.416;2024-02-15T00:19:36;4.35;;;3.10;;
45077;SDS011;60508;42.622;25.416;2024-02-15T00:22:25;7.00;;;3.60;;
45077;SDS011;60508;42.622;25.416;2024-02-15T00:24:52;7.07;;;3.40;;
45077;SDS011;60508;42.622;25.416;2024-02-15T00:27:39;7.35;;;3.47;;
45077;SDS011;60508;42.622;25.416;2024-02-15T00:30:08;7.55;;;5.10;;
45077;SDS011;60508;42.622;25.416;2024-02-15T00:32:34;7.65;;;4.25;;
45077;SDS011;60508;42.622;25.416;2024-02-15T00:35:03;4.50;;;3.50;;
45077;SDS011;60508;42.622;25.416;2024-02-15T00:37:35;7.68;;;4.00;;
45077;SDS011;60508;42.622;25.416;2024-02-15T00:40:02;6.57;;;3.72;;
45077;SDS011;60508;42.622;25.416;2024-02-15T00:42:51;7.30;;;4.43;;
45077;SDS011;60508;42.622;25.416;2024-02-15T00:45:18;6.95;;;3.75;;
45077;SDS011;60508;42.622;25.416;2024-02-15T00:48:04;6.15;;;4.18;;
45077;SDS011;60508;42.622;25.416;2024-02-15T00:50:32;6.03;;;4.60;;
45077;SDS011;60508;42.622;25.416;2024-02-15T00:53:19;6.10;;;4.15;;
45077;SDS011;60508;42.622;25.416;2024-02-15T00:55:46;7.38;;;3.83;;
45077;SDS011;60508;42.622;25.416;2024-02-15T00:58:12;3.65;;;3.30;;
45077;SDS011;60508;42.622;25.416;2024-02-15T01:00:39;6.70;;;4.22;;
45077;SDS011;60508;42.622;25.416;2024-02-15T01:03:05;5.03;;;3.85;;
45077;SDS011;60508;42.622;25.416;2024-02-15T01:05:51;6.72;;;4.97;;
45077;SDS011;60508;42.622;25.416;2024-02-15T01:08:18;5.15;;;3.67;;
45077;SDS011;60508;42.622;25.416;2024-02-15T01:11:06;9.55;;;3.67;;
45077;SDS011;60508;42.622;25.416;2024-02-15T01:13:33;12.15;;;7.13;;
45077;SDS011;60508;42.622;25.416;2024-02-15T01:16:00;7.47;;;4.72;;
45077;SDS011;60508;42.622;25.416;2024-02-15T01:18:49;7.80;;;3.83;;
45077;SDS011;60508;42.622;25.416;2024-02-15T01:21:15;5.18;;;3.83;;
45077;SDS011;60508;42.622;25.416;2024-02-15T01:23:42;5.65;;;4.00;;
45077;SDS011;60508;42.622;25.416;2024-02-15T01:26:10;4.22;;;3.72;;
45077;SDS011;60508;42.622;25.416;2024-02-15T01:28:58;6.00;;;4.20;;
45077;SDS011;60508;42.622;25.416;2024-02-15T01:31:25;9.73;;;4.15;;
45077;SDS011;60508;42.622;25.416;2024-02-15T01:33:51;5.45;;;3.95;;
45077;SDS011;60508;42.622;25.416;2024-02-15T01:36:37;6.45;;;4.45;;
45077;SDS011;60508;42.622;25.416;2024-02-15T01:39:04;5.28;;;4.00;;
45077;SDS011;60508;42.622;25.416;2024-02-15T01:41:30;5.22;;;3.95;;
45077;SDS011;60508;42.622;25.416;2024-02-15T01:43:57;7.93;;;5.20;;
45077;SDS011;60508;42.622;25.416;2024-02-15T01:46:43;9.82;;;4.55;;
45077;SDS011;60508;42.622;25.416;2024-02-15T01:49:12;6.40;;;4.07;;
45077;SDS011;60508;42.622;25.416;2024-02-15T01:51:58;5.10;;;4.15;;
45077;SDS011;60508;42.622;25.416;2024-02-15T01:54:28;5.07;;;3.92;;
45077;SDS011;60508;42.622;25.416;2024-02-15T01:56:55;6.82;;;4.47;;
45077;SDS011;60508;42.622;25.416;2024-02-15T01:59:22;9.00;;;4.45;;
45077;SDS011;60508;42.622;25.416;2024-02-15T02:01:49;6.00;;;4.55;;
45077;SDS011;60508;42.622;25.416;2024-02-15T02:04:16;5.65;;;4.53;;
45077;SDS011;60508;42.622;25.416;2024-02-15T02:06:42;5.10;;;3.70;;
45077;SDS011;60508;42.622;25.416;2024-02-15T02:09:28;6.90;;;4.75;;
45077;SDS011;60508;42.622;25.416;2024-02-15T02:11:55;7.65;;;4.47;;
45077;SDS011;60508;42.622;25.416;2024-02-15T02:14:21;13.57;;;6.07;;
45077;SDS011;60508;42.622;25.416;2024-02-15T02:17:14;9.77;;;4.25;;
45077;SDS011;60508;42.622;25.416;2024-02-15T02:19:41;6.15;;;3.97;;
45077;SDS011;60508;42.622;25.416;2024-02-15T02:22:08;6.72;;;3.95;;
45077;SDS011;60508;42.622;25.416;2024-02-15T02:24:54;4.78;;;3.78;;
45077;SDS011;60508;42.622;25.416;2024-02-15T02:27:29;11.02;;;4.22;;
45077;SDS011;60508;42.622;25.416;2024-02-15T02:29:58;7.65;;;4.72;;
45077;SDS011;60508;42.622;25.416;2024-02-15T02:32:25;7.82;;;3.97;;
45077;SDS011;60508;42.622;25.416;2024-02-15T02:34:53;5.20;;;3.72;;
45077;SDS011;60508;42.622;25.416;2024-02-15T02:37:23;4.72;;;3.85;;
45077;SDS011;60508;42.622;25.416;2024-02-15T02:39:50;7.43;;;4.32;;
45077;SDS011;60508;42.622;25.416;2024-02-15T02:42:46;13.77;;;4.45;;
45077;SDS011;60508;42.622;25.416;2024-02-15T02:45:17;11.27;;;4.95;;
45077;SDS011;60508;42.622;25.416;2024-02-15T02:47:46;6.05;;;4.05;;
45077;SDS011;60508;42.622;25.416;2024-02-15T02:50:15;9.40;;;4.53;;
45077;SDS011;60508;42.622;25.416;2024-02-15T02:53:02;6.32;;;4.43;;
45077;SDS011;60508;42.622;25.416;2024-02-15T02:55:28;5.15;;;4.03;;
45077;SDS011;60508;42.622;25.416;2024-02-15T02:58:15;8.25;;;5.65;;
45077;SDS011;60508;42.622;25.416;2024-02-15T03:00:42;7.88;;;5.65;;
45077;SDS011;60508;42.622;25.416;2024-02-15T03:03:14;6.68;;;4.78;;
45077;SDS011;60508;42.622;25.416;2024-02-15T03:05:51;5.75;;;4.70;;
45077;SDS011;60508;42.622;25.416;2024-02-15T03:08:18;6.45;;;4.82;;
45077;SDS011;60508;42.622;25.416;2024-02-15T03:10:44;5.25;;;3.90;;
45077;SDS011;60508;42.622;25.416;2024-02-15T03:13:10;9.98;;;5.20;;
45077;SDS011;60508;42.622;25.416;2024-02-15T03:15:57;5.72;;;4.00;;
45077;SDS011;60508;42.622;25.416;2024-02-15T03:18:24;7.47;;;5.00;;
45077;SDS011;60508;42.622;25.416;2024-02-15T03:20:51;12.68;;;4.90;;
45077;SDS011;60508;42.622;25.416;2024-02-15T03:23:17;7.53;;;4.93;;
45077;SDS011;60508;42.622;25.416;2024-02-15T03:26:07;8.05;;;4.68;;
45077;SDS011;60508;42.622;25.416;2024-02-15T03:28:34;6.95;;;4.50;;
45077;SDS011;60508;42.622;25.416;2024-02-15T03:31:03;6.43;;;4.20;;
45077;SDS011;60508;42.622;25.416;2024-02-15T03:33:30;6.53;;;4.60;;
45077;SDS011;60508;42.622;25.416;2024-02-15T03:36:20;8.85;;;4.00;;
45077;SDS011;60508;42.622;25.416;2024-02-15T03:38:47;4.65;;;3.83;;
45077;SDS011;60508;42.622;25.416;2024-02-15T03:41:34;8.00;;;4.57;;
45077;SDS011;60508;42.622;25.416;2024-02-15T03:44:00;4.80;;;4.28;;
45077;SDS011;60508;42.622;25.416;2024-02-15T03:46:27;6.80;;;4.60;;
45077;SDS011;60508;42.622;25.416;2024-02-15T03:48:53;5.70;;;4.07;;
45077;SDS011;60508;42.622;25.416;2024-02-15T03:51:22;6.20;;;4.90;;
45077;SDS011;60508;42.622;25.416;2024-02-15T03:53:50;6.93;;;5.13;;
45077;SDS011;60508;42.622;25.416;2024-02-15T03:56:47;5.60;;;3.67;;
45077;SDS011;60508;42.622;25.416;2024-02-15T03:59:20;7.82;;;4.65;;
45077;SDS011;60508;42.622;25.416;2024-02-15T04:02:11;10.05;;;4.47;;
45077;SDS011;60508;42.622;25.416;2024-02-15T04:04:40;5.82;;;4.32;;
45077;SDS011;60508;42.622;25.416;2024-02-15T04:07:32;7.03;;;5.50;;
45077;SDS011;60508;42.622;25.416;2024-02-15T04:09:59;9.57;;;6.03;;
45077;SDS011;60508;42.622;25.416;2024-02-15T04:12:47;6.78;;;5.18;;
45077;SDS011;60508;42.622;25.416;2024-02-15T04:15:13;7.13;;;4.55;;
45077;SDS011;60508;42.622;25.416;2024-02-15T04:18:03;8.68;;;5.03;;
45077;SDS011;60508;42.622;25.416;2024-02-15T04:20:29;10.20;;;5.00;;
45077;SDS011;60508;42.622;25.416;2024-02-15T04:22:56;7.45;;;4.43;;
45077;SDS011;60508;42.622;25.416;2024-02-15T04:27:53;8.15;;;3.88;;
45077;SDS011;60508;42.622;25.416;2024-02-15T04:30:20;6.40;;;4.82;;
45077;SDS011;60508;42.622;25.416;2024-02-15T04:35:37;5.50;;;3.95;;
45077;SDS011;60508;42.622;25.416;2024-02-15T04:38:04;8.63;;;5.50;;
45077;SDS011;60508;42.622;25.416;2024-02-15T04:40:30;8.18;;;4.60;;
45077;SDS011;60508;42.622;25.416;2024-02-15T04:43:16;6.75;;;4.55;;
45077;SDS011;60508;42.622;25.416;2024-02-15T04:45:44;7.75;;;4.93;;
45077;SDS011;60508;42.622;25.416;2024-02-15T04:48:11;8.30;;;4.85;;
45077;SDS011;60508;42.622;25.416;2024-02-15T04:50:40;6.43;;;5.77;;
45077;SDS011;60508;42.622;25.416;2024-02-15T04:53:28;6.60;;;5.13;;
45077;SDS011;60508;42.622;25.416;2024-02-15T04:55:56;6.93;;;4.63;;
45077;SDS011;60508;42.622;25.416;2024-02-15T04:58:42;8.32;;;6.05;;
45077;SDS011;60508;42.622;25.416;2024-02-15T05:01:13;6.72;;;5.07;;
45077;SDS011;60508;42.622;25.416;2024-02-15T05:04:01;8.23;;;5.35;;
45077;SDS011;60508;42.622;25.416;2024-02-15T05:06:32;7.85;;;5.18;;
45077;SDS011;60508;42.622;25.416;2024-02-15T05:08:59;9.60;;;5.40;;
45077;SDS011;60508;42.622;25.416;2024-02-15T05:11:26;5.80;;;4.85;;
45077;SDS011;60508;42.622;25.416;2024-02-15T05:13:52;8.02;;;5.63;;
45077;SDS011;60508;42.622;25.416;2024-02-15T05:16:18;6.90;;;4.45;;
45077;SDS011;60508;42.622;25.416;2024-02-15T05:19:05;7.53;;;5.82;;
45077;SDS011;60508;42.622;25.416;2024-02-15T05:21:33;7.80;;;4.30;;
45077;SDS011;60508;42.622;25.416;2024-02-15T05:24:19;7.90;;;5.95;;
45077;SDS011;60508;42.622;25.416;2024-02-15T05:26:46;6.75;;;4.82;;
45077;SDS011;60508;42.622;25.416;2024-02-15T05:29:36;6.95;;;4.75;;
45077;SDS011;60508;42.622;25.416;2024-02-15T05:32:03;7.15;;;4.60;;
45077;SDS011;60508;42.622;25.416;2024-02-15T05:34:29;5.60;;;4.80;;
45077;SDS011;60508;42.622;25.416;2024-02-15T05:36:56;6.35;;;4.90;;
45077;SDS011;60508;42.622;25.416;2024-02-15T05:39:42;6.32;;;5.18;;
45077;SDS011;60508;42.622;25.416;2024-02-15T05:42:15;10.20;;;5.75;;
45077;SDS011;60508;42.622;25.416;2024-02-15T05:45:27;8.32;;;5.97;;
45077;SDS011;60508;42.622;25.416;2024-02-15T05:47:59;6.00;;;4.88;;
45077;SDS011;60508;42.622;25.416;2024-02-15T05:50:46;8.70;;;5.80;;
45077;SDS011;60508;42.622;25.416;2024-02-15T05:53:12;15.13;;;5.60;;
45077;SDS011;60508;42.622;25.416;2024-02-15T05:55:39;9.23;;;5.93;;
45077;SDS011;60508;42.622;25.416;2024-02-15T05:58:10;9.10;;;5.00;;
45077;SDS011;60508;42.622;25.416;2024-02-15T06:00:37;6.55;;;4.72;;
45077;SDS011;60508;42.622;25.416;2024-02-15T06:03:04;7.28;;;5.35;;
45077;SDS011;60508;42.622;25.416;2024-02-15T06:05:55;8.70;;;5.00;;
45077;SDS011;60508;42.622;25.416;2024-02-15T06:08:24;9.35;;;5.70;;
45077;SDS011;60508;42.622;25.416;2024-02-15T06:10:51;6.25;;;4.45;;
45077;SDS011;60508;42.622;25.416;2024-02-15T06:13:23;7.95;;;5.05;;
45077;SDS011;60508;42.622;25.416;2024-02-15T06:16:13;7.05;;;5.30;;
45077;SDS011;60508;42.622;25.416;2024-02-15T06:18:40;6.75;;;4.78;;
45077;SDS011;60508;42.622;25.416;2024-02-15T06:21:06;8.43;;;4.72;;
45077;SDS011;60508;42.622;25.416;2024-02-15T06:23:32;10.32;;;4.95;;
45077;SDS011;60508;42.622;25.416;2024-02-15T06:26:19;8.15;;;4.65;;
45077;SDS011;60508;42.622;25.416;2024-02-15T06:28:47;11.30;;;7.55;;
45077;SDS011;60508;42.622;25.416;2024-02-15T06:31:31;6.30;;;4.38;;
45077;SDS011;60508;42.622;25.416;2024-02-15T06:34:36;6.65;;;4.35;;
45077;SDS011;60508;42.622;25.416;2024-02-15T06:37:37;6.45;;;4.70;;
45077;SDS011;60508;42.622;25.416;2024-02-15T06:40:43;6.00;;;4.43;;
45077;SDS011;60508;42.622;25.416;2024-02-15T06:43:10;5.95;;;4.63;;
45077;SDS011;60508;42.622;25.416;2024-02-15T06:45:57;8.77;;;4.20;;
45077;SDS011;60508;42.622;25.416;2024-02-15T06:48:24;7.82;;;4.00;;
45077;SDS011;60508;42.622;25.416;2024-02-15T06:51:15;8.43;;;3.88;;
45077;SDS011;60508;42.622;25.416;2024-02-15T06:53:41;8.23;;;4.50;;
45077;SDS011;60508;42.622;25.416;2024-02-15T06:56:10;5.70;;;4.75;;
45077;SDS011;60508;42.622;25.416;2024-02-15T06:58:57;5.65;;;4.13;;
45077;SDS011;60508;42.622;25.416;2024-02-15T07:01:24;7.45;;;4.55;;
45077;SDS011;60508;42.622;25.416;2024-02-15T07:03:51;5.30;;;4.18;;
45077;SDS011;60508;42.622;25.416;2024-02-15T07:06:17;10.18;;;4.95;;
45077;SDS011;60508;42.622;25.416;2024-02-15T07:09:04;5.30;;;3.42;;
45077;SDS011;60508;42.622;25.416;2024-02-15T07:11:32;6.00;;;4.32;;
45077;SDS011;60508;42.622;25.416;2024-02-15T07:14:20;4.47;;;3.87;;
45077;SDS011;60508;42.622;25.416;2024-02-15T07:16:47;6.57;;;4.20;;
45077;SDS011;60508;42.622;25.416;2024-02-15T07:19:14;9.88;;;4.40;;
45077;SDS011;60508;42.622;25.416;2024-02-15T07:21:41;5.40;;;3.80;;
45077;SDS011;60508;42.622;25.416;2024-02-15T07:24:08;7.50;;;4.78;;
45077;SDS011;60508;42.622;25.416;2024-02-15T07:26:35;10.02;;;5.05;;
45077;SDS011;60508;42.622;25.416;2024-02-15T07:29:23;6.10;;;4.38;;
45077;SDS011;60508;42.622;25.416;2024-02-15T07:31:50;7.97;;;4.30;;
45077;SDS011;60508;42.622;25.416;2024-02-15T07:34:36;7.38;;;4.18;;
45077;SDS011;60508;42.622;25.416;2024-02-15T07:37:03;7.90;;;4.03;;
45077;SDS011;60508;42.622;25.416;2024-02-15T07:39:29;4.10;;;3.45;;
45077;SDS011;60508;42.622;25.416;2024-02-15T07:41:56;8.18;;;4.45;;
45077;SDS011;60508;42.622;25.416;2024-02-15T07:44:25;4.50;;;3.50;;
45077;SDS011;60508;42.622;25.416;2024-02-15T07:47:16;11.27;;;4.18;;
45077;SDS011;60508;42.622;25.416;2024-02-15T07:49:46;5.20;;;3.97;;
45077;SDS011;60508;42.622;25.416;2024-02-15T07:52:12;10.43;;;4.78;;
45077;SDS011;60508;42.622;25.416;2024-02-15T07:54:39;7.97;;;4.35;;
45077;SDS011;60508;42.622;25.416;2024-02-15T07:57:25;5.88;;;3.50;;
45077;SDS011;60508;42.622;25.416;2024-02-15T07:59:52;10.52;;;4.32;;
45077;SDS011;60508;42.622;25.416;2024-02-15T08:02:19;10.95;;;4.60;;
45077;SDS011;60508;42.622;25.416;2024-02-15T08:07:41;5.05;;;3.75;;
45077;SDS011;60508;42.622;25.416;2024-02-15T08:10:30;4.25;;;3.35;;
45077;SDS011;60508;42.622;25.416;2024-02-15T08:12:57;4.38;;;3.08;;
45077;SDS011;60508;42.622;25.416;2024-02-15T08:15:24;4.38;;;3.25;;
45077;SDS011;60508;42.622;25.416;2024-02-15T08:20:39;4.28;;;3.33;;
45077;SDS011;60508;42.622;25.416;2024-02-15T08:23:06;3.97;;;3.42;;
45077;SDS011;60508;42.622;25.416;2024-02-15T08:25:32;3.95;;;3.47;;
45077;SDS011;60508;42.622;25.416;2024-02-15T08:27:59;6.18;;;4.00;;
45077;SDS011;60508;42.622;25.416;2024-02-15T08:30:31;7.55;;;3.83;;
45077;SDS011;60508;42.622;25.416;2024-02-15T08:32:57;5.30;;;3.83;;
45077;SDS011;60508;42.622;25.416;2024-02-15T08:35:44;4.53;;;3.83;;
45077;SDS011;60508;42.622;25.416;2024-02-15T08:38:10;3.90;;;3.15;;
45077;SDS011;60508;42.622;25.416;2024-02-15T08:40:37;7.90;;;4.75;;
45077;SDS011;60508;42.622;25.416;2024-02-15T08:43:23;6.10;;;3.65;;
45077;SDS011;60508;42.622;25.416;2024-02-15T08:45:49;10.30;;;4.43;;
45077;SDS011;60508;42.622;25.416;2024-02-15T08:48:16;5.55;;;4.00;;
45077;SDS011;60508;42.622;25.416;2024-02-15T08:50:42;8.05;;;4.05;;
45077;SDS011;60508;42.622;25.416;2024-02-15T08:53:31;5.13;;;3.88;;
45077;SDS011;60508;42.622;25.416;2024-02-15T08:55:58;6.20;;;3.85;;
45077;SDS011;60508;42.622;25.416;2024-02-15T08:58:25;4.93;;;3.67;;
45077;SDS011;60508;42.622;25.416;2024-02-15T09:00:52;4.30;;;3.60;;
45077;SDS011;60508;42.622;25.416;2024-02-15T09:03:20;4.63;;;3.13;;
45077;SDS011;60508;42.622;25.416;2024-02-15T09:05:46;3.67;;;2.80;;
45077;SDS011;60508;42.622;25.416;2024-02-15T09:08:33;8.05;;;5.63;;
45077;SDS011;60508;42.622;25.416;2024-02-15T09:10:59;6.18;;;3.47;;
45077;SDS011;60508;42.622;25.416;2024-02-15T09:13:26;4.25;;;3.53;;
45077;SDS011;60508;42.622;25.416;2024-02-15T09:15:52;11.25;;;3.95;;
45077;SDS011;60508;42.622;25.416;2024-02-15T09:18:39;3.45;;;3.15;;
45077;SDS011;60508;42.622;25.416;2024-02-15T09:21:10;6.55;;;3.60;;
45077;SDS011;60508;42.622;25.416;2024-02-15T09:23:37;3.97;;;3.40;;
45077;SDS011;60508;42.622;25.416;2024-02-15T09:26:04;4.47;;;3.33;;
45077;SDS011;60508;42.622;25.416;2024-02-15T09:28:51;5.43;;;3.35;;
45077;SDS011;60508;42.622;25.416;2024-02-15T09:31:19;4.43;;;3.47;;
45077;SDS011;60508;42.622;25.416;2024-02-15T09:34:05;6.38;;;3.67;;
45077;SDS011;60508;42.622;25.416;2024-02-15T09:36:36;3.25;;;2.88;;
45077;SDS011;60508;42.622;25.416;2024-02-15T09:39:05;4.57;;;2.85;;
45077;SDS011;60508;42.622;25.416;2024-02-15T09:41:32;4.75;;;2.92;;
45077;SDS011;60508;42.622;25.416;2024-02-15T09:44:20;3.92;;;3.45;;
45077;SDS011;60508;42.622;25.416;2024-02-15T09:46:47;4.28;;;2.97;;
45077;SDS011;60508;42.622;25.416;2024-02-15T09:49:20;9.27;;;3.63;;
45077;SDS011;60508;42.622;25.416;2024-02-15T09:51:47;7.97;;;3.00;;
45077;SDS011;60508;42.622;25.416;2024-02-15T09:54:14;4.18;;;3.20;;
45077;SDS011;60508;42.622;25.416;2024-02-15T09:56:51;6.07;;;4.18;;
45077;SDS011;60508;42.622;25.416;2024-02-15T09:59:18;6.90;;;3.10;;
45077;SDS011;60508;42.622;25.416;2024-02-15T10:02:05;4.10;;;2.25;;
45077;SDS011;60508;42.622;25.416;2024-02-15T10:04:37;3.28;;;2.42;;
45077;SDS011;60508;42.622;25.416;2024-02-15T10:07:25;4.43;;;2.03;;
45077;SDS011;60508;42.622;25.416;2024-02-15T10:09:53;3.03;;;2.28;;
45077;SDS011;60508;42.622;25.416;2024-02-15T10:12:20;3.75;;;2.72;;
45077;SDS011;60508;42.622;25.416;2024-02-15T10:15:07;3.75;;;3.03;;
45077;SDS011;60508;42.622;25.416;2024-02-15T10:17:35;3.97;;;3.08;;
45077;SDS011;60508;42.622;25.416;2024-02-15T10:20:22;5.43;;;2.83;;
45077;SDS011;60508;42.622;25.416;2024-02-15T10:23:12;2.78;;;2.35;;
45077;SDS011;60508;42.622;25.416;2024-02-15T10:26:00;5.10;;;2.73;;
45077;SDS011;60508;42.622;25.416;2024-02-15T10:29:08;4.80;;;2.78;;
45077;SDS011;60508;42.622;25.416;2024-02-15T10:31:57;5.70;;;3.63;;
45077;SDS011;60508;42.622;25.416;2024-02-15T10:34:28;4.22;;;2.70;;
45077;SDS011;60508;42.622;25.416;2024-02-15T10:36:54;4.78;;;2.53;;
45077;SDS011;60508;42.622;25.416;2024-02-15T10:39:24;2.50;;;2.30;;
45077;SDS011;60508;42.622;25.416;2024-02-15T10:42:11;4.03;;;2.00;;
45077;SDS011;60508;42.622;25.416;2024-02-15T10:44:44;2.38;;;2.03;;
45077;SDS011;60508;42.622;25.416;2024-02-15T10:47:37;3.58;;;2.25;;
45077;SDS011;60508;42.622;25.416;2024-02-15T10:50:10;2.20;;;2.00;;
45077;SDS011;60508;42.622;25.416;2024-02-15T10:53:00;2.60;;;2.28;;
45077;SDS011;60508;42.622;25.416;2024-02-15T10:55:48;3.38;;;2.20;;
45077;SDS011;60508;42.622;25.416;2024-02-15T10:58:47;3.40;;;2.50;;
45077;SDS011;60508;42.622;25.416;2024-02-15T11:01:17;2.95;;;2.13;;
45077;SDS011;60508;42.622;25.416;2024-02-15T11:03:48;2.97;;;2.00;;
45077;SDS011;60508;42.622;25.416;2024-02-15T11:06:22;2.47;;;1.83;;
45077;SDS011;60508;42.622;25.416;2024-02-15T11:08:52;2.80;;;1.85;;
45077;SDS011;60508;42.622;25.416;2024-02-15T11:11:19;3.65;;;2.58;;
45077;SDS011;60508;42.622;25.416;2024-02-15T11:13:46;3.42;;;1.83;;
45077;SDS011;60508;42.622;25.416;2024-02-15T11:17:01;2.00;;;1.90;;
45077;SDS011;60508;42.622;25.416;2024-02-15T11:19:06;3.38;;;1.83;;
45077;SDS011;60508;42.622;25.416;2024-02-15T11:24:27;1.85;;;1.50;;
45077;SDS011;60508;42.622;25.416;2024-02-15T11:26:58;4.70;;;2.20;;
45077;SDS011;60508;42.622;25.416;2024-02-15T11:32:41;2.30;;;1.90;;
45077;SDS011;60508;42.622;25.416;2024-02-15T11:35:13;3.25;;;2.30;;
45077;SDS011;60508;42.622;25.416;2024-02-15T11:40:27;3.65;;;2.00;;
45077;SDS011;60508;42.622;25.416;2024-02-15T11:46:16;2.13;;;1.75;;
45077;SDS011;60508;42.622;25.416;2024-02-15T11:49:14;1.70;;;1.50;;
45077;SDS011;60508;42.622;25.416;2024-02-15T11:51:46;4.57;;;2.13;;
45077;SDS011;60508;42.622;25.416;2024-02-15T11:54:13;3.47;;;1.70;;
45077;SDS011;60508;42.622;25.416;2024-02-15T11:59:58;2.30;;;1.73;;
45077;SDS011;60508;42.622;25.416;2024-02-15T12:03:00;3.15;;;2.05;;
45077;SDS011;60508;42.622;25.416;2024-02-15T12:06:05;1.60;;;1.38;;
45077;SDS011;60508;42.622;25.416;2024-02-15T12:08:51;3.83;;;2.35;;
45077;SDS011;60508;42.622;25.416;2024-02-15T12:11:58;4.82;;;2.20;;
45077;SDS011;60508;42.622;25.416;2024-02-15T12:14:43;2.03;;;1.85;;
45077;SDS011;60508;42.622;25.416;2024-02-15T12:17:28;2.75;;;1.48;;
45077;SDS011;60508;42.622;25.416;2024-02-15T12:20:13;1.60;;;1.40;;
45077;SDS011;60508;42.622;25.416;2024-02-15T12:22:41;2.63;;;1.65;;
45077;SDS011;60508;42.622;25.416;2024-02-15T12:25:15;3.15;;;1.90;;
45077;SDS011;60508;42.622;25.416;2024-02-15T12:27:43;4.13;;;2.72;;
45077;SDS011;60508;42.622;25.416;2024-02-15T12:30:33;3.28;;;1.70;;
45077;SDS011;60508;42.622;25.416;2024-02-15T12:33:09;1.95;;;1.75;;
45077;SDS011;60508;42.622;25.416;2024-02-15T12:36:06;1.73;;;1.60;;
45077;SDS011;60508;42.622;25.416;2024-02-15T12:38:34;3.95;;;2.90;;
45077;SDS011;60508;42.622;25.416;2024-02-15T12:41:23;2.88;;;2.05;;
45077;SDS011;60508;42.622;25.416;2024-02-15T12:43:53;2.08;;;1.80;;
45077;SDS011;60508;42.622;25.416;2024-02-15T12:46:39;1.83;;;1.63;;
45077;SDS011;60508;42.622;25.416;2024-02-15T12:49:11;4.82;;;3.08;;
45077;SDS011;60508;42.622;25.416;2024-02-15T12:52:32;7.20;;;2.47;;
45077;SDS011;60508;42.622;25.416;2024-02-15T12:55:08;1.83;;;1.65;;
45077;SDS011;60508;42.622;25.416;2024-02-15T12:57:56;2.88;;;2.35;;
45077;SDS011;60508;42.622;25.416;2024-02-15T13:00:24;4.57;;;2.20;;
45077;SDS011;60508;42.622;25.416;2024-02-15T13:03:14;8.00;;;2.70;;
45077;SDS011;60508;42.622;25.416;2024-02-15T13:05:42;3.45;;;2.10;;
45077;SDS011;60508;42.622;25.416;2024-02-15T13:08:08;2.88;;;2.40;;
45077;SDS011;60508;42.622;25.416;2024-02-15T13:10:39;2.58;;;1.98;;
45077;SDS011;60508;42.622;25.416;2024-02-15T13:13:25;2.50;;;2.17;;
45077;SDS011;60508;42.622;25.416;2024-02-15T13:15:53;4.15;;;2.50;;
45077;SDS011;60508;42.622;25.416;2024-02-15T13:18:20;4.47;;;2.00;;
45077;SDS011;60508;42.622;25.416;2024-02-15T13:20:47;3.17;;;2.17;;
45077;SDS011;60508;42.622;25.416;2024-02-15T13:23:38;2.97;;;2.67;;
45077;SDS011;60508;42.622;25.416;2024-02-15T13:26:05;4.50;;;2.42;;
45077;SDS011;60508;42.622;25.416;2024-02-15T13:28:54;7.53;;;2.35;;
45077;SDS011;60508;42.622;25.416;2024-02-15T13:31:21;7.18;;;2.97;;
45077;SDS011;60508;42.622;25.416;2024-02-15T13:34:08;4.32;;;3.53;;
45077;SDS011;60508;42.622;25.416;2024-02-15T13:36:36;4.90;;;3.03;;
45077;SDS011;60508;42.622;25.416;2024-02-15T13:39:03;10.88;;;4.00;;
45077;SDS011;60508;42.622;25.416;2024-02-15T13:41:31;5.03;;;3.75;;
45077;SDS011;60508;42.622;25.416;2024-02-15T13:43:57;4.80;;;3.30;;
45077;SDS011;60508;42.622;25.416;2024-02-15T13:46:23;4.85;;;3.25;;
45077;SDS011;60508;42.622;25.416;2024-02-15T13:49:10;3.67;;;2.78;;
45077;SDS011;60508;42.622;25.416;2024-02-15T13:51:39;5.97;;;3.67;;
45077;SDS011;60508;42.622;25.416;2024-02-15T13:54:25;3.75;;;2.83;;
45077;SDS011;60508;42.622;25.416;2024-02-15T13:59:22;4.25;;;2.88;;
45077;SDS011;60508;42.622;25.416;2024-02-15T14:01:49;4.50;;;3.17;;
45077;SDS011;60508;42.622;25.416;2024-02-15T14:04:15;3.63;;;3.08;;
45077;SDS011;60508;42.622;25.416;2024-02-15T14:06:45;4.03;;;3.13;;
45077;SDS011;60508;42.622;25.416;2024-02-15T14:09:11;5.00;;;2.85;;
45077;SDS011;60508;42.622;25.416;2024-02-15T14:11:38;7.78;;;3.55;;
45077;SDS011;60508;42.622;25.416;2024-02-15T14:14:24;4.93;;;3.25;;
45077;SDS011;60508;42.622;25.416;2024-02-15T14:16:51;3.05;;;2.70;;
45077;SDS011;60508;42.622;25.416;2024-02-15T14:19:18;9.05;;;4.88;;
45077;SDS011;60508;42.622;25.416;2024-02-15T14:22:05;6.95;;;5.95;;
45077;SDS011;60508;42.622;25.416;2024-02-15T14:24:34;3.58;;;3.08;;
45077;SDS011;60508;42.622;25.416;2024-02-15T14:27:21;5.47;;;3.40;;
45077;SDS011;60508;42.622;25.416;2024-02-15T14:29:48;4.35;;;3.17;;
45077;SDS011;60508;42.622;25.416;2024-02-15T14:32:52;4.85;;;3.45;;
45077;SDS011;60508;42.622;25.416;2024-02-15T14:35:34;7.13;;;4.43;;
45077;SDS011;60508;42.622;25.416;2024-02-15T14:38:02;5.70;;;3.28;;
45077;SDS011;60508;42.622;25.416;2024-02-15T14:40:38;4.32;;;3.67;;
45077;SDS011;60508;42.622;25.416;2024-02-15T14:43:06;5.57;;;3.42;;
45077;SDS011;60508;42.622;25.416;2024-02-15T14:46:03;11.15;;;4.43;;
45077;SDS011;60508;42.622;25.416;2024-02-15T14:48:31;7.00;;;4.38;;
45077;SDS011;60508;42.622;25.416;2024-02-15T14:51:18;8.30;;;2.80;;
45077;SDS011;60508;42.622;25.416;2024-02-15T14:53:45;4.15;;;3.15;;
45077;SDS011;60508;42.622;25.416;2024-02-15T14:56:11;6.10;;;3.60;;
45077;SDS011;60508;42.622;25.416;2024-02-15T14:58:38;7.03;;;4.63;;
45077;SDS011;60508;42.622;25.416;2024-02-15T15:01:06;5.60;;;3.38;;
45077;SDS011;60508;42.622;25.416;2024-02-15T15:03:56;3.97;;;3.17;;
45077;SDS011;60508;42.622;25.416;2024-02-15T15:06:24;7.70;;;5.10;;
45077;SDS011;60508;42.622;25.416;2024-02-15T15:09:29;8.13;;;3.95;;
45077;SDS011;60508;42.622;25.416;2024-02-15T15:12:13;4.90;;;3.88;;
45077;SDS011;60508;42.622;25.416;2024-02-15T15:15:18;4.93;;;3.00;;
45077;SDS011;60508;42.622;25.416;2024-02-15T15:17:45;4.07;;;3.65;;
45077;SDS011;60508;42.622;25.416;2024-02-15T15:20:20;5.28;;;3.42;;
45077;SDS011;60508;42.622;25.416;2024-02-15T15:22:56;5.68;;;4.50;;
45077;SDS011;60508;42.622;25.416;2024-02-15T15:25:22;6.85;;;4.20;;
45077;SDS011;60508;42.622;25.416;2024-02-15T15:28:09;5.95;;;4.50;;
45077;SDS011;60508;42.622;25.416;2024-02-15T15:30:41;5.25;;;3.83;;
45077;SDS011;60508;42.622;25.416;2024-02-15T15:33:34;6.25;;;4.30;;
45077;SDS011;60508;42.622;25.416;2024-02-15T15:38:30;8.40;;;4.60;;
45077;SDS011;60508;42.622;25.416;2024-02-15T15:40:57;8.82;;;6.38;;
45077;SDS011;60508;42.622;25.416;2024-02-15T15:43:25;9.05;;;5.18;;
45077;SDS011;60508;42.622;25.416;2024-02-15T15:46:14;7.72;;;6.13;;
45077;SDS011;60508;42.622;25.416;2024-02-15T15:48:41;7.65;;;4.47;;
45077;SDS011;60508;42.622;25.416;2024-02-15T15:51:09;6.07;;;4.00;;